sensor_id;sensor_type;location;lat;lon;timestamp;pressure;altitude;pressure_sealevel;temperature;humidity
75996;BME280;64681;49.738;9.004;2023-04-06T00:00:50;99801.38;;;1.01;65.98
75996;BME280;64681;49.738;9.004;2023-04-06T00:03:19;99801.91;;;0.98;66.23
75996;BME280;64681;49.738;9.004;2023-04-06T00:05:46;99802.09;;;0.86;67.11
75996;BME280;64681;49.738;9.004;2023-04-06T00:08:11;99799.03;;;1.05;66.32
75996;BME280;64681;49.738;9.004;2023-04-06T00:10:37;99784.44;;;0.82;66.65
75996;BME280;64681;49.738;9.004;2023-04-06T00:13:04;99766.59;;;0.46;67.07
75996;BME280;64681;49.738;9.004;2023-04-06T00:15:30;99793.19;;;0.55;67.14
75996;BME280;64681;49.738;9.004;2023-04-06T00:17:56;99793.16;;;0.50;67.20
75996;BME280;64681;49.738;9.004;2023-04-06T00:20:22;99793.25;;;0.60;66.14
75996;BME280;64681;49.738;9.004;2023-04-06T00:22:47;99789.91;;;0.37;66.81
75996;BME280;64681;49.738;9.004;2023-04-06T00:25:13;99781.53;;;0.40;67.36
75996;BME280;64681;49.738;9.004;2023-04-06T00:27:41;99792.56;;;0.42;67.84
75996;BME280;64681;49.738;9.004;2023-04-06T00:30:07;99777.38;;;0.44;67.37
75996;BME280;64681;49.738;9.004;2023-04-06T00:32:36;99782.28;;;0.36;67.36
75996;BME280;64681;49.738;9.004;2023-04-06T00:35:03;99763.25;;;0.18;68.45
75996;BME280;64681;49.738;9.004;2023-04-06T00:37:29;99757.94;;;-0.14;69.16
75996;BME280;64681;49.738;9.004;2023-04-06T00:39:54;99776.03;;;-0.18;69.47
75996;BME280;64681;49.738;9.004;2023-04-06T00:42:21;99770.44;;;-0.27;70.35
75996;BME280;64681;49.738;9.004;2023-04-06T00:45:01;99768.16;;;-0.18;69.48
75996;BME280;64681;49.738;9.004;2023-04-06T00:47:27;99762.13;;;-0.19;68.46
75996;BME280;64681;49.738;9.004;2023-04-06T00:49:54;99776.63;;;-0.11;68.74
75996;BME280;64681;49.738;9.004;2023-04-06T00:52:21;99757.03;;;-0.30;69.75
75996;BME280;64681;49.738;9.004;2023-04-06T00:54:46;99741.56;;;-0.27;69.08
75996;BME280;64681;49.738;9.004;2023-04-06T00:57:13;99751.63;;;-0.19;69.10
75996;BME280;64681;49.738;9.004;2023-04-06T00:59:39;99748.72;;;-0.22;69.04
75996;BME280;64681;49.738;9.004;2023-04-06T01:02:06;99755.03;;;-0.18;68.79
75996;BME280;64681;49.738;9.004;2023-04-06T01:04:32;99752.47;;;-0.13;68.74
75996;BME280;64681;49.738;9.004;2023-04-06T01:06:58;99766.19;;;-0.33;70.88
75996;BME280;64681;49.738;9.004;2023-04-06T01:09:24;99762.81;;;-0.28;70.78
75996;BME280;64681;49.738;9.004;2023-04-06T01:11:49;99750.03;;;-0.47;71.11
75996;BME280;64681;49.738;9.004;2023-04-06T01:14:15;99749.13;;;-0.58;71.72
75996;BME280;64681;49.738;9.004;2023-04-06T01:16:41;99757.84;;;-0.52;71.41
75996;BME280;64681;49.738;9.004;2023-04-06T01:19:11;99739.13;;;-0.61;71.29
75996;BME280;64681;49.738;9.004;2023-04-06T01:21:39;99746.84;;;-0.49;71.53
75996;BME280;64681;49.738;9.004;2023-04-06T01:24:05;99736.19;;;-0.42;71.01
75996;BME280;64681;49.738;9.004;2023-04-06T01:26:32;99732.56;;;-0.36;70.23
75996;BME280;64681;49.738;9.004;2023-04-06T01:28:58;99743.41;;;-0.27;69.61
75996;BME280;64681;49.738;9.004;2023-04-06T01:31:24;99739.94;;;-0.33;69.40
75996;BME280;64681;49.738;9.004;2023-04-06T01:33:50;99722.75;;;-0.46;69.58
75996;BME280;64681;49.738;9.004;2023-04-06T01:36:16;99743.31;;;-0.38;69.93
75996;BME280;64681;49.738;9.004;2023-04-06T01:38:42;99729.84;;;-0.46;69.54
75996;BME280;64681;49.738;9.004;2023-04-06T01:41:08;99733.16;;;-0.29;69.34
75996;BME280;64681;49.738;9.004;2023-04-06T01:43:34;99727.09;;;-0.35;69.36
75996;BME280;64681;49.738;9.004;2023-04-06T01:46:00;99727.75;;;-0.17;68.74
75996;BME280;64681;49.738;9.004;2023-04-06T01:48:27;99695.78;;;-0.41;69.27
75996;BME280;64681;49.738;9.004;2023-04-06T01:50:53;99715.94;;;-0.20;69.84
75996;BME280;64681;49.738;9.004;2023-04-06T01:53:19;99702.13;;;-0.37;70.51
75996;BME280;64681;49.738;9.004;2023-04-06T01:55:45;99707.72;;;-0.78;72.24
75996;BME280;64681;49.738;9.004;2023-04-06T01:58:11;99701.81;;;-0.68;71.38
75996;BME280;64681;49.738;9.004;2023-04-06T02:00:37;99728.78;;;-0.45;70.59
75996;BME280;64681;49.738;9.004;2023-04-06T02:03:03;99711.72;;;-0.48;70.21
75996;BME280;64681;49.738;9.004;2023-04-06T02:05:30;99711.81;;;-0.38;70.43
75996;BME280;64681;49.738;9.004;2023-04-06T02:07:56;99720.84;;;-0.56;71.04
75996;BME280;64681;49.738;9.004;2023-04-06T02:10:23;99714.94;;;-0.41;70.75
75996;BME280;64681;49.738;9.004;2023-04-06T02:12:49;99710.09;;;-0.76;72.57
75996;BME280;64681;49.738;9.004;2023-04-06T02:15:15;99735.59;;;-0.72;73.17
75996;BME280;64681;49.738;9.004;2023-04-06T02:17:41;99722.72;;;-0.96;73.44
75996;BME280;64681;49.738;9.004;2023-04-06T02:20:07;99731.28;;;-0.83;73.93
75996;BME280;64681;49.738;9.004;2023-04-06T02:22:35;99730.84;;;-0.97;73.78
75996;BME280;64681;49.738;9.004;2023-04-06T02:25:01;99722.22;;;-1.15;74.24
75996;BME280;64681;49.738;9.004;2023-04-06T02:27:27;99728.91;;;-0.85;72.92
75996;BME280;64681;49.738;9.004;2023-04-06T02:29:53;99728.84;;;-0.68;72.70
75996;BME280;64681;49.738;9.004;2023-04-06T02:32:19;99709.56;;;-1.01;74.19
75996;BME280;64681;49.738;9.004;2023-04-06T02:34:44;99723.00;;;-1.36;75.67
75996;BME280;64681;49.738;9.004;2023-04-06T02:37:10;99734.09;;;-1.29;75.42
75996;BME280;64681;49.738;9.004;2023-04-06T02:39:35;99718.88;;;-1.10;74.22
75996;BME280;64681;49.738;9.004;2023-04-06T02:42:01;99715.50;;;-1.10;74.27
75996;BME280;64681;49.738;9.004;2023-04-06T02:44:27;99695.78;;;-0.91;72.79
75996;BME280;64681;49.738;9.004;2023-04-06T02:46:52;99714.88;;;-0.73;72.37
75996;BME280;64681;49.738;9.004;2023-04-06T02:49:18;99698.97;;;-0.89;72.23
75996;BME280;64681;49.738;9.004;2023-04-06T02:51:43;99702.06;;;-0.92;72.24
75996;BME280;64681;49.738;9.004;2023-04-06T02:54:09;99704.88;;;-0.99;73.36
75996;BME280;64681;49.738;9.004;2023-04-06T02:56:35;99700.94;;;-1.01;73.21
75996;BME280;64681;49.738;9.004;2023-04-06T02:59:00;99704.06;;;-0.99;72.86
75996;BME280;64681;49.738;9.004;2023-04-06T03:01:26;99693.97;;;-1.13;72.90
75996;BME280;64681;49.738;9.004;2023-04-06T03:03:52;99690.94;;;-1.04;73.17
75996;BME280;64681;49.738;9.004;2023-04-06T03:06:17;99713.06;;;-0.73;72.18
75996;BME280;64681;49.738;9.004;2023-04-06T03:08:43;99708.91;;;-0.69;71.40
75996;BME280;64681;49.738;9.004;2023-04-06T03:11:08;99710.34;;;-0.78;72.16
75996;BME280;64681;49.738;9.004;2023-04-06T03:13:36;99712.72;;;-0.76;72.05
75996;BME280;64681;49.738;9.004;2023-04-06T03:16:04;99698.59;;;-0.75;72.02
75996;BME280;64681;49.738;9.004;2023-04-06T03:18:31;99712.50;;;-0.75;71.97
75996;BME280;64681;49.738;9.004;2023-04-06T03:20:56;99707.47;;;-0.76;71.76
75996;BME280;64681;49.738;9.004;2023-04-06T03:23:22;99698.19;;;-1.12;73.19
75996;BME280;64681;49.738;9.004;2023-04-06T03:25:48;99707.16;;;-1.07;72.96
75996;BME280;64681;49.738;9.004;2023-04-06T03:28:14;99717.56;;;-1.13;72.92
75996;BME280;64681;49.738;9.004;2023-04-06T03:30:41;99717.28;;;-1.11;73.06
75996;BME280;64681;49.738;9.004;2023-04-06T03:33:07;99712.25;;;-1.18;73.42
75996;BME280;64681;49.738;9.004;2023-04-06T03:35:32;99717.75;;;-1.19;74.32
75996;BME280;64681;49.738;9.004;2023-04-06T03:37:58;99714.16;;;-1.13;73.45
75996;BME280;64681;49.738;9.004;2023-04-06T03:40:24;99715.19;;;-1.14;73.30
75996;BME280;64681;49.738;9.004;2023-04-06T03:42:50;99720.53;;;-1.26;74.13
75996;BME280;64681;49.738;9.004;2023-04-06T03:45:16;99720.41;;;-1.14;73.75
75996;BME280;64681;49.738;9.004;2023-04-06T03:47:41;99725.34;;;-1.18;73.32
75996;BME280;64681;49.738;9.004;2023-04-06T03:50:07;99729.09;;;-1.31;74.21
75996;BME280;64681;49.738;9.004;2023-04-06T03:52:34;99718.00;;;-1.38;74.41
75996;BME280;64681;49.738;9.004;2023-04-06T03:55:00;99727.81;;;-1.28;74.37
75996;BME280;64681;49.738;9.004;2023-04-06T03:57:26;99732.94;;;-1.38;74.80
75996;BME280;64681;49.738;9.004;2023-04-06T03:59:51;99722.09;;;-1.64;75.22
75996;BME280;64681;49.738;9.004;2023-04-06T04:02:17;99734.47;;;-1.60;75.78
75996;BME280;64681;49.738;9.004;2023-04-06T04:04:43;99727.81;;;-1.50;74.42
75996;BME280;64681;49.738;9.004;2023-04-06T04:07:08;99734.53;;;-1.54;74.96
75996;BME280;64681;49.738;9.004;2023-04-06T04:09:34;99729.38;;;-1.66;76.32
75996;BME280;64681;49.738;9.004;2023-04-06T04:11:59;99724.88;;;-1.71;76.30
75996;BME280;64681;49.738;9.004;2023-04-06T04:14:25;99729.72;;;-1.80;76.36
75996;BME280;64681;49.738;9.004;2023-04-06T04:16:50;99735.84;;;-1.74;76.67
75996;BME280;64681;49.738;9.004;2023-04-06T04:19:16;99720.13;;;-1.74;75.79
75996;BME280;64681;49.738;9.004;2023-04-06T04:21:45;99741.84;;;-1.56;75.24
75996;BME280;64681;49.738;9.004;2023-04-06T04:24:11;99736.91;;;-1.53;74.91
75996;BME280;64681;49.738;9.004;2023-04-06T04:26:37;99739.06;;;-1.50;74.64
75996;BME280;64681;49.738;9.004;2023-04-06T04:29:03;99725.75;;;-1.65;74.79
75996;BME280;64681;49.738;9.004;2023-04-06T04:31:29;99716.06;;;-1.65;74.12
75996;BME280;64681;49.738;9.004;2023-04-06T04:33:55;99741.13;;;-1.52;74.84
75996;BME280;64681;49.738;9.004;2023-04-06T04:36:21;99745.00;;;-1.37;73.77
75996;BME280;64681;49.738;9.004;2023-04-06T04:38:46;99742.53;;;-1.27;73.19
75996;BME280;64681;49.738;9.004;2023-04-06T04:41:12;99733.25;;;-1.52;74.73
75996;BME280;64681;49.738;9.004;2023-04-06T04:43:38;99725.50;;;-1.64;74.72
75996;BME280;64681;49.738;9.004;2023-04-06T04:46:04;99737.13;;;-1.37;74.10
75996;BME280;64681;49.738;9.004;2023-04-06T04:48:30;99737.31;;;-1.44;73.47
75996;BME280;64681;49.738;9.004;2023-04-06T04:50:56;99749.13;;;-1.41;74.05
75996;BME280;64681;49.738;9.004;2023-04-06T04:53:21;99748.72;;;-1.33;73.66
75996;BME280;64681;49.738;9.004;2023-04-06T04:55:47;99740.88;;;-1.33;73.18
75996;BME280;64681;49.738;9.004;2023-04-06T04:58:13;99738.59;;;-1.47;74.00
75996;BME280;64681;49.738;9.004;2023-04-06T05:00:42;99742.47;;;-1.49;74.31
75996;BME280;64681;49.738;9.004;2023-04-06T05:03:09;99743.22;;;-1.54;74.02
75996;BME280;64681;49.738;9.004;2023-04-06T05:05:37;99746.75;;;-1.43;74.41
75996;BME280;64681;49.738;9.004;2023-04-06T05:08:03;99753.75;;;-1.49;75.04
75996;BME280;64681;49.738;9.004;2023-04-06T05:10:31;99747.47;;;-1.48;75.30
75996;BME280;64681;49.738;9.004;2023-04-06T05:12:57;99746.59;;;-1.53;75.38
75996;BME280;64681;49.738;9.004;2023-04-06T05:15:23;99745.56;;;-1.52;77.36
75996;BME280;64681;49.738;9.004;2023-04-06T05:17:48;99749.78;;;-1.51;75.38
75996;BME280;64681;49.738;9.004;2023-04-06T05:20:14;99747.63;;;-1.54;75.39
75996;BME280;64681;49.738;9.004;2023-04-06T05:22:40;99757.16;;;-1.31;75.35
75996;BME280;64681;49.738;9.004;2023-04-06T05:25:07;99762.78;;;-0.78;73.70
75996;BME280;64681;49.738;9.004;2023-04-06T05:27:32;99738.00;;;-0.70;72.90
75996;BME280;64681;49.738;9.004;2023-04-06T05:29:59;99758.16;;;-0.71;73.51
75996;BME280;64681;49.738;9.004;2023-04-06T05:32:27;99744.38;;;-0.83;73.64
75996;BME280;64681;49.738;9.004;2023-04-06T05:34:53;99757.28;;;-0.76;73.36
75996;BME280;64681;49.738;9.004;2023-04-06T05:37:18;99753.75;;;-0.87;73.49
75996;BME280;64681;49.738;9.004;2023-04-06T05:39:44;99758.91;;;-0.98;73.66
75996;BME280;64681;49.738;9.004;2023-04-06T05:42:10;99758.22;;;-0.88;73.04
75996;BME280;64681;49.738;9.004;2023-04-06T05:44:37;99762.28;;;-0.53;72.44
75996;BME280;64681;49.738;9.004;2023-04-06T05:47:03;99749.78;;;-0.45;71.53
75996;BME280;64681;49.738;9.004;2023-04-06T05:49:29;99752.50;;;-0.08;70.50
75996;BME280;64681;49.738;9.004;2023-04-06T05:51:55;99756.13;;;0.13;70.00
75996;BME280;64681;49.738;9.004;2023-04-06T05:54:20;99756.22;;;0.29;69.43
75996;BME280;64681;49.738;9.004;2023-04-06T05:56:46;99761.94;;;0.58;68.81
75996;BME280;64681;49.738;9.004;2023-04-06T05:59:12;99760.16;;;0.64;68.48
75996;BME280;64681;49.738;9.004;2023-04-06T06:01:38;99754.88;;;0.64;68.30
75996;BME280;64681;49.738;9.004;2023-04-06T06:04:16;99721.22;;;0.18;68.92
75996;BME280;64681;49.738;9.004;2023-04-06T06:06:41;99744.81;;;0.13;68.98
75996;BME280;64681;49.738;9.004;2023-04-06T06:09:07;99755.91;;;0.58;68.52
75996;BME280;64681;49.738;9.004;2023-04-06T06:11:34;99738.31;;;1.06;67.16
75996;BME280;64681;49.738;9.004;2023-04-06T06:17:53;99766.78;;;0.72;68.65
75996;BME280;64681;49.738;9.004;2023-04-06T06:20:33;99705.88;;;0.90;67.07
75996;BME280;64681;49.738;9.004;2023-04-06T06:29:42;99739.56;;;2.29;62.36
75996;BME280;64681;49.738;9.004;2023-04-06T06:32:08;99768.28;;;2.31;63.73
75996;BME280;64681;49.738;9.004;2023-04-06T06:34:35;99761.81;;;3.09;61.59
75996;BME280;64681;49.738;9.004;2023-04-06T06:37:01;99748.66;;;3.99;59.43
75996;BME280;64681;49.738;9.004;2023-04-06T06:39:27;99763.00;;;4.81;58.06
75996;BME280;64681;49.738;9.004;2023-04-06T06:41:53;99763.16;;;5.14;54.88
75996;BME280;64681;49.738;9.004;2023-04-06T06:44:20;99754.50;;;4.84;54.39
75996;BME280;64681;49.738;9.004;2023-04-06T06:46:47;99756.59;;;5.31;54.12
75996;BME280;64681;49.738;9.004;2023-04-06T06:49:13;99741.59;;;5.45;54.09
75996;BME280;64681;49.738;9.004;2023-04-06T06:51:40;99762.63;;;6.13;53.67
75996;BME280;64681;49.738;9.004;2023-04-06T06:54:05;99758.63;;;6.76;52.84
75996;BME280;64681;49.738;9.004;2023-04-06T06:56:31;99744.84;;;7.44;49.27
75996;BME280;64681;49.738;9.004;2023-04-06T06:59:10;99748.53;;;7.57;48.07
75996;BME280;64681;49.738;9.004;2023-04-06T07:01:57;99756.28;;;7.67;47.67
75996;BME280;64681;49.738;9.004;2023-04-06T07:04:24;99723.97;;;7.37;47.76
75996;BME280;64681;49.738;9.004;2023-04-06T07:06:53;99746.03;;;7.38;48.82
75996;BME280;64681;49.738;9.004;2023-04-06T07:09:23;99732.97;;;7.13;49.17
75996;BME280;64681;49.738;9.004;2023-04-06T07:11:51;99730.31;;;7.64;48.35
75996;BME280;64681;49.738;9.004;2023-04-06T07:14:17;99711.84;;;8.04;47.38
75996;BME280;64681;49.738;9.004;2023-04-06T07:16:43;99736.53;;;8.59;47.09
75996;BME280;64681;49.738;9.004;2023-04-06T07:19:10;99727.03;;;8.67;47.61
75996;BME280;64681;49.738;9.004;2023-04-06T07:21:36;99732.03;;;9.17;45.36
75996;BME280;64681;49.738;9.004;2023-04-06T07:24:02;99739.00;;;9.54;45.04
75996;BME280;64681;49.738;9.004;2023-04-06T07:26:28;99729.09;;;9.98;45.21
75996;BME280;64681;49.738;9.004;2023-04-06T07:28:53;99731.09;;;10.19;44.85
75996;BME280;64681;49.738;9.004;2023-04-06T07:31:19;99744.53;;;10.31;45.04
75996;BME280;64681;49.738;9.004;2023-04-06T07:33:45;99737.94;;;10.46;44.58
75996;BME280;64681;49.738;9.004;2023-04-06T07:36:12;99730.19;;;10.92;42.74
75996;BME280;64681;49.738;9.004;2023-04-06T07:38:40;99704.38;;;11.26;41.77
75996;BME280;64681;49.738;9.004;2023-04-06T07:41:10;99724.97;;;11.68;41.72
75996;BME280;64681;49.738;9.004;2023-04-06T07:43:36;99724.72;;;11.39;42.07
75996;BME280;64681;49.738;9.004;2023-04-06T07:46:03;99722.59;;;10.73;42.04
75996;BME280;64681;49.738;9.004;2023-04-06T07:48:28;99743.44;;;10.50;44.02
75996;BME280;64681;49.738;9.004;2023-04-06T07:51:05;99736.59;;;10.05;42.65
75996;BME280;64681;49.738;9.004;2023-04-06T07:53:32;99730.66;;;9.99;43.77
75996;BME280;64681;49.738;9.004;2023-04-06T07:55:59;99730.19;;;9.88;44.34
75996;BME280;64681;49.738;9.004;2023-04-06T07:58:27;99714.78;;;9.24;45.28
75996;BME280;64681;49.738;9.004;2023-04-06T08:00:53;99730.69;;;9.73;43.50
75996;BME280;64681;49.738;9.004;2023-04-06T08:03:20;99734.22;;;10.21;44.31
75996;BME280;64681;49.738;9.004;2023-04-06T08:05:47;99717.41;;;10.38;43.64
75996;BME280;64681;49.738;9.004;2023-04-06T08:08:42;99692.78;;;10.71;41.89
75996;BME280;64681;49.738;9.004;2023-04-06T08:11:22;99717.88;;;11.30;40.47
75996;BME280;64681;49.738;9.004;2023-04-06T08:13:48;99705.09;;;11.35;40.09
75996;BME280;64681;49.738;9.004;2023-04-06T08:16:13;99721.97;;;11.69;38.87
75996;BME280;64681;49.738;9.004;2023-04-06T08:18:39;99717.59;;;12.19;39.91
75996;BME280;64681;49.738;9.004;2023-04-06T08:21:29;99712.50;;;13.01;38.97
75996;BME280;64681;49.738;9.004;2023-04-06T08:24:10;99668.38;;;13.52;37.52
75996;BME280;64681;49.738;9.004;2023-04-06T08:26:49;99691.19;;;14.50;34.96
75996;BME280;64681;49.738;9.004;2023-04-06T08:29:24;99711.16;;;15.17;36.37
75996;BME280;64681;49.738;9.004;2023-04-06T08:31:50;99720.28;;;15.32;37.04
75996;BME280;64681;49.738;9.004;2023-04-06T08:34:15;99721.50;;;15.93;33.33
75996;BME280;64681;49.738;9.004;2023-04-06T08:40:07;99690.06;;;16.98;29.66
75996;BME280;64681;49.738;9.004;2023-04-06T09:43:36;99618.66;;;12.60;36.48
75996;BME280;64681;49.738;9.004;2023-04-06T09:46:42;99669.63;;;13.29;37.11
75996;BME280;64681;49.738;9.004;2023-04-06T09:55:05;99674.66;;;13.43;33.72
75996;BME280;64681;49.738;9.004;2023-04-06T09:58:05;99686.03;;;13.81;33.65
75996;BME280;64681;49.738;9.004;2023-04-06T10:00:35;99673.00;;;13.67;34.93
75996;BME280;64681;49.738;9.004;2023-04-06T10:03:45;99674.84;;;13.63;34.53
75996;BME280;64681;49.738;9.004;2023-04-06T10:16:32;99617.78;;;12.97;36.40
75996;BME280;64681;49.738;9.004;2023-04-06T10:19:49;99688.38;;;13.99;33.51
75996;BME280;64681;49.738;9.004;2023-04-06T10:22:59;99654.03;;;14.20;33.47
75996;BME280;64681;49.738;9.004;2023-04-06T10:26:22;99652.84;;;13.45;35.30
75996;BME280;64681;49.738;9.004;2023-04-06T10:28:51;99651.00;;;13.61;35.61
75996;BME280;64681;49.738;9.004;2023-04-06T10:32:32;99674.03;;;14.55;31.99
75996;BME280;64681;49.738;9.004;2023-04-06T10:39:30;99630.88;;;13.68;33.43
75996;BME280;64681;49.738;9.004;2023-04-06T10:46:25;99665.28;;;14.10;34.25
75996;BME280;64681;49.738;9.004;2023-04-06T10:48:51;99651.34;;;14.20;32.41
75996;BME280;64681;49.738;9.004;2023-04-06T10:51:18;99656.59;;;13.85;35.07
75996;BME280;64681;49.738;9.004;2023-04-06T10:53:47;99655.91;;;13.88;33.23
75996;BME280;64681;49.738;9.004;2023-04-06T10:56:17;99658.19;;;14.34;35.64
75996;BME280;64681;49.738;9.004;2023-04-06T10:58:51;99641.09;;;14.74;32.56
75996;BME280;64681;49.738;9.004;2023-04-06T11:01:20;99637.94;;;14.56;33.26
75996;BME280;64681;49.738;9.004;2023-04-06T11:03:54;99651.69;;;14.67;33.17
75996;BME280;64681;49.738;9.004;2023-04-06T11:06:22;99658.84;;;14.63;32.07
75996;BME280;64681;49.738;9.004;2023-04-06T11:08:49;99667.81;;;14.67;31.67
75996;BME280;64681;49.738;9.004;2023-04-06T11:11:17;99653.91;;;14.49;31.68
75996;BME280;64681;49.738;9.004;2023-04-06T11:14:19;99660.16;;;14.37;31.63
75996;BME280;64681;49.738;9.004;2023-04-06T11:17:35;99655.81;;;14.48;30.15
75996;BME280;64681;49.738;9.004;2023-04-06T11:20:25;99661.97;;;14.01;30.50
75996;BME280;64681;49.738;9.004;2023-04-06T11:23:32;99611.22;;;13.80;31.83
75996;BME280;64681;49.738;9.004;2023-04-06T11:26:02;99648.38;;;13.93;31.21
75996;BME280;64681;49.738;9.004;2023-04-06T11:28:53;99653.13;;;13.84;32.27
75996;BME280;64681;49.738;9.004;2023-04-06T11:31:44;99644.56;;;13.79;32.80
75996;BME280;64681;49.738;9.004;2023-04-06T11:34:23;99630.56;;;14.01;32.31
75996;BME280;64681;49.738;9.004;2023-04-06T11:37:11;99611.66;;;14.14;32.06
75996;BME280;64681;49.738;9.004;2023-04-06T11:39:51;99626.38;;;14.20;31.50
75996;BME280;64681;49.738;9.004;2023-04-06T11:45:59;99635.81;;;14.30;32.34
75996;BME280;64681;49.738;9.004;2023-04-06T11:48:45;99601.78;;;14.02;30.75
75996;BME280;64681;49.738;9.004;2023-04-06T11:51:22;99613.56;;;13.97;31.89
75996;BME280;64681;49.738;9.004;2023-04-06T11:54:30;99628.91;;;13.97;33.94
75996;BME280;64681;49.738;9.004;2023-04-06T11:57:46;99602.47;;;13.99;31.92
75996;BME280;64681;49.738;9.004;2023-04-06T12:00:49;99606.47;;;14.21;30.57
75996;BME280;64681;49.738;9.004;2023-04-06T12:03:18;99588.47;;;13.45;30.87
75996;BME280;64681;49.738;9.004;2023-04-06T12:06:06;99612.31;;;13.06;34.60
75996;BME280;64681;49.738;9.004;2023-04-06T12:08:49;99579.69;;;13.04;34.50
75996;BME280;64681;49.738;9.004;2023-04-06T12:11:27;99600.19;;;13.53;33.01
75996;BME280;64681;49.738;9.004;2023-04-06T12:13:59;99583.03;;;13.13;33.80
75996;BME280;64681;49.738;9.004;2023-04-06T12:16:56;99602.22;;;13.72;34.78
75996;BME280;64681;49.738;9.004;2023-04-06T12:19:26;99576.66;;;13.78;32.54
75996;BME280;64681;49.738;9.004;2023-04-06T12:21:57;99572.34;;;14.05;32.45
75996;BME280;64681;49.738;9.004;2023-04-06T12:24:30;99553.44;;;14.18;29.94
75996;BME280;64681;49.738;9.004;2023-04-06T12:26:56;99593.19;;;14.28;34.08
75996;BME280;64681;49.738;9.004;2023-04-06T12:29:25;99603.34;;;14.19;33.99
75996;BME280;64681;49.738;9.004;2023-04-06T12:31:51;99584.31;;;14.44;31.93
75996;BME280;64681;49.738;9.004;2023-04-06T12:34:18;99578.94;;;14.60;30.52
75996;BME280;64681;49.738;9.004;2023-04-06T12:36:44;99590.78;;;14.75;31.05
75996;BME280;64681;49.738;9.004;2023-04-06T12:39:10;99583.66;;;15.02;30.19
75996;BME280;64681;49.738;9.004;2023-04-06T12:41:36;99583.06;;;14.73;32.39
75996;BME280;64681;49.738;9.004;2023-04-06T12:44:02;99575.50;;;14.98;27.94
75996;BME280;64681;49.738;9.004;2023-04-06T12:46:28;99594.06;;;15.03;30.80
75996;BME280;64681;49.738;9.004;2023-04-06T12:48:58;99584.94;;;14.88;31.87
75996;BME280;64681;49.738;9.004;2023-04-06T12:51:27;99591.53;;;14.75;30.33
75996;BME280;64681;49.738;9.004;2023-04-06T12:53:53;99590.66;;;15.26;31.51
75996;BME280;64681;49.738;9.004;2023-04-06T12:56:19;99584.44;;;15.22;29.67
75996;BME280;64681;49.738;9.004;2023-04-06T12:58:48;99583.13;;;15.35;30.43
75996;BME280;64681;49.738;9.004;2023-04-06T13:01:13;99587.31;;;15.76;29.09
75996;BME280;64681;49.738;9.004;2023-04-06T13:03:42;99589.19;;;15.95;27.99
75996;BME280;64681;49.738;9.004;2023-04-06T13:06:09;99587.03;;;15.38;29.45
75996;BME280;64681;49.738;9.004;2023-04-06T13:08:35;99585.19;;;15.85;28.64
75996;BME280;64681;49.738;9.004;2023-04-06T13:11:02;99566.41;;;16.73;27.98
75996;BME280;64681;49.738;9.004;2023-04-06T14:21:10;99544.16;;;17.14;27.03
75996;BME280;64681;49.738;9.004;2023-04-06T14:23:42;99513.63;;;16.72;26.86
75996;BME280;64681;49.738;9.004;2023-04-06T14:29:44;99519.25;;;16.59;26.58
75996;BME280;64681;49.738;9.004;2023-04-06T14:32:33;99535.38;;;15.98;26.05
75996;BME280;64681;49.738;9.004;2023-04-06T14:34:59;99528.88;;;16.30;26.85
75996;BME280;64681;49.738;9.004;2023-04-06T14:41:19;99528.06;;;16.56;27.51
75996;BME280;64681;49.738;9.004;2023-04-06T14:43:49;99525.56;;;16.40;26.28
75996;BME280;64681;49.738;9.004;2023-04-06T14:46:25;99491.94;;;16.30;27.58
75996;BME280;64681;49.738;9.004;2023-04-06T14:48:55;99498.31;;;16.49;26.63
75996;BME280;64681;49.738;9.004;2023-04-06T14:51:40;99491.25;;;16.68;25.36
75996;BME280;64681;49.738;9.004;2023-04-06T14:54:06;99513.22;;;16.70;25.42
75996;BME280;64681;49.738;9.004;2023-04-06T14:56:31;99507.22;;;16.84;25.95
75996;BME280;64681;49.738;9.004;2023-04-06T14:58:58;99506.41;;;16.49;26.66
75996;BME280;64681;49.738;9.004;2023-04-06T15:01:33;99515.63;;;16.48;26.57
75996;BME280;64681;49.738;9.004;2023-04-06T15:04:01;99488.66;;;16.14;28.31
75996;BME280;64681;49.738;9.004;2023-04-06T15:06:27;99515.69;;;16.52;26.45
75996;BME280;64681;49.738;9.004;2023-04-06T15:08:55;99498.69;;;16.17;28.30
75996;BME280;64681;49.738;9.004;2023-04-06T15:11:24;99519.41;;;15.63;26.97
75996;BME280;64681;49.738;9.004;2023-04-06T15:14:00;99519.81;;;15.65;28.47
75996;BME280;64681;49.738;9.004;2023-04-06T15:16:26;99526.09;;;15.49;28.45
75996;BME280;64681;49.738;9.004;2023-04-06T15:18:51;99511.75;;;14.99;28.93
75996;BME280;64681;49.738;9.004;2023-04-06T15:21:17;99510.47;;;15.12;27.59
75996;BME280;64681;49.738;9.004;2023-04-06T15:23:45;99511.84;;;15.49;28.30
75996;BME280;64681;49.738;9.004;2023-04-06T15:26:11;99515.09;;;15.58;29.25
75996;BME280;64681;49.738;9.004;2023-04-06T15:28:36;99514.94;;;15.04;30.69
75996;BME280;64681;49.738;9.004;2023-04-06T15:31:02;99523.44;;;14.87;31.87
75996;BME280;64681;49.738;9.004;2023-04-06T15:33:31;99520.81;;;14.91;29.32
75996;BME280;64681;49.738;9.004;2023-04-06T15:35:56;99511.41;;;15.00;29.81
75996;BME280;64681;49.738;9.004;2023-04-06T15:38:22;99516.97;;;15.11;29.85
75996;BME280;64681;49.738;9.004;2023-04-06T15:40:48;99529.44;;;15.19;30.42
75996;BME280;64681;49.738;9.004;2023-04-06T15:43:15;99507.28;;;15.07;30.13
75996;BME280;64681;49.738;9.004;2023-04-06T15:45:41;99513.97;;;14.93;30.23
75996;BME280;64681;49.738;9.004;2023-04-06T15:48:15;99458.16;;;14.67;30.68
75996;BME280;64681;49.738;9.004;2023-04-06T15:50:46;99522.78;;;15.13;31.75
75996;BME280;64681;49.738;9.004;2023-04-06T15:53:12;99501.09;;;14.83;30.68
75996;BME280;64681;49.738;9.004;2023-04-06T15:55:37;99513.31;;;14.80;30.77
75996;BME280;64681;49.738;9.004;2023-04-06T15:58:04;99500.28;;;14.63;32.15
75996;BME280;64681;49.738;9.004;2023-04-06T16:00:34;99507.03;;;14.92;32.47
75996;BME280;64681;49.738;9.004;2023-04-06T16:03:03;99479.75;;;15.13;30.60
75996;BME280;64681;49.738;9.004;2023-04-06T16:05:32;99490.06;;;14.68;30.05
75996;BME280;64681;49.738;9.004;2023-04-06T16:08:27;99500.38;;;15.29;29.57
75996;BME280;64681;49.738;9.004;2023-04-06T16:10:53;99488.34;;;14.80;30.08
75996;BME280;64681;49.738;9.004;2023-04-06T16:13:19;99510.13;;;14.94;31.51
75996;BME280;64681;49.738;9.004;2023-04-06T16:15:49;99505.09;;;15.12;30.57